TAF KHSV
KHSV 280520Z 2806/2906 VRB03KT P6SM BKN250 FM281900 33008KT P6SM SCT030 BKN150 FM290000 36005KT P6SM SKC=
METAR KHSV
WC KHSV
WS KHSV
WV KHSV